Time;durP1;ratioP1;P1;durP2;ratioP2;P2;SDS_P1;SDS_P2;PMS_P1;PMS_P2;Temp;Humidity;BMP_temperature;BMP_pressure;BME280_temperature;BME280_humidity;BME280_pressure;Samples;Min_cycle;Max_cycle;Signal;HPM_P1;HPM_P2
2021/03/25 00:01:17;;;;;;;39.97;22.73;;;;;;;5.03;97.41;101086.34;5211886;28;20028;-77
2021/03/25 00:03:49;;;;;;;42.55;22.70;;;;;;;4.89;97.74;101088.13;5224223;28;20518;-77
2021/03/25 00:06:21;;;;;;;45.00;23.23;;;;;;;4.88;98.27;101082.94;5227701;28;20021;-77
2021/03/25 00:08:53;;;;;;;47.45;22.67;;;;;;;5.15;95.03;101077.63;5226450;28;20041;-78
2021/03/25 00:11:23;;;;;;;41.95;22.25;;;;;;;4.96;95.21;101084.63;5229667;28;20029;-77
2021/03/25 00:13:53;;;;;;;42.35;22.13;;;;;;;4.76;96.92;101086.44;5228473;28;20050;-77
2021/03/25 00:16:24;;;;;;;46.35;23.15;;;;;;;4.65;98.65;101083.03;5228512;28;20037;-77
2021/03/25 00:18:54;;;;;;;51.65;25.08;;;;;;;4.51;100.00;101078.78;5223532;28;20112;-77
2021/03/25 00:21:26;;;;;;;51.78;26.10;;;;;;;4.53;100.00;101093.44;5207385;28;20095;-77
2021/03/25 00:23:57;;;;;;;49.90;26.65;;;;;;;4.49;100.00;101081.34;5225424;28;20024;-78
2021/03/25 00:26:28;;;;;;;53.70;26.95;;;;;;;4.54;100.00;101089.97;5223568;28;20097;-77
2021/03/25 00:28:58;;;;;;;52.95;26.15;;;;;;;4.52;100.00;101091.72;5214579;28;20024;-77
2021/03/25 00:31:28;;;;;;;50.83;26.40;;;;;;;4.52;100.00;101090.84;5226671;28;20021;-78
2021/03/25 00:33:59;;;;;;;54.92;26.85;;;;;;;4.49;100.00;101085.69;5219807;28;20025;-77
2021/03/25 00:36:29;;;;;;;52.33;26.73;;;;;;;4.51;100.00;101090.00;5222804;28;20045;-77
2021/03/25 00:38:59;;;;;;;51.22;25.10;;;;;;;4.55;100.00;101078.75;5228027;28;20025;-77
2021/03/25 00:41:32;;;;;;;54.13;25.83;;;;;;;4.56;100.00;101083.06;5224321;28;20469;-77
2021/03/25 00:44:06;;;;;;;45.88;23.95;;;;;;;4.53;100.00;101084.81;5227180;28;20024;-76
2021/03/25 00:46:37;;;;;;;49.15;24.85;;;;;;;4.48;100.00;101089.13;5228590;28;20060;-78
2021/03/25 00:49:07;;;;;;;48.17;25.60;;;;;;;4.50;100.00;101088.25;5225497;28;20040;-77
2021/03/25 00:51:38;;;;;;;45.70;24.42;;;;;;;4.54;100.00;101084.81;5226943;28;20383;-77
2021/03/25 00:54:08;;;;;;;43.05;22.58;;;;;;;4.51;100.00;101094.28;5226343;28;20532;-77
2021/03/25 00:56:39;;;;;;;47.88;24.58;;;;;;;4.44;100.00;101087.44;5223648;28;20025;-77
2021/03/25 00:59:09;;;;;;;44.53;24.05;;;;;;;4.42;100.00;101087.44;5231651;28;20028;-77
2021/03/25 01:01:39;;;;;;;43.80;23.40;;;;;;;4.26;100.00;101087.47;5227833;28;20021;-78
2021/03/25 01:04:09;;;;;;;44.55;23.60;;;;;;;4.21;100.00;101095.25;5223852;28;20112;-78
2021/03/25 01:06:40;;;;;;;48.05;24.05;;;;;;;4.26;100.00;101093.50;5224197;28;20039;-77
2021/03/25 01:09:23;;;;;;;44.75;23.35;;;;;;;4.23;100.00;101093.50;5222622;28;20033;-77
2021/03/25 01:11:55;;;;;;;45.78;23.40;;;;;;;4.22;100.00;101094.38;5221315;28;20024;-77
2021/03/25 01:14:26;;;;;;;48.63;24.30;;;;;;;4.25;100.00;101091.78;5227438;28;20474;-77
2021/03/25 01:17:01;;;;;;;44.75;23.13;;;;;;;4.35;100.00;101098.66;5226028;28;20025;-77
2021/03/25 01:19:33;;;;;;;43.63;23.27;;;;;;;4.45;98.08;101095.16;5219489;28;20107;-78
2021/03/25 01:22:03;;;;;;;44.03;22.67;;;;;;;4.55;97.13;101099.47;5224103;28;20314;-77
2021/03/25 01:24:34;;;;;;;44.13;21.70;;;;;;;4.43;98.36;101099.50;5222762;28;20048;-77
2021/03/25 01:27:05;;;;;;;47.63;23.65;;;;;;;4.36;98.64;101097.81;5220764;28;20055;-77
2021/03/25 01:29:35;;;;;;;43.83;22.17;;;;;;;4.26;99.48;101097.81;5230669;28;20031;-77
2021/03/25 01:32:06;;;;;;;44.88;23.05;;;;;;;4.37;99.85;101094.34;5206118;28;20458;-78
2021/03/25 01:34:36;;;;;;;45.67;22.20;;;;;;;4.19;99.85;101091.78;5232634;28;20029;-77
2021/03/25 01:37:06;;;;;;;46.08;22.83;;;;;;;4.14;100.00;101096.09;5221673;28;20021;-76
2021/03/25 01:39:37;;;;;;;43.33;21.17;;;;;;;3.78;100.00;101103.03;5221156;28;20033;-77
2021/03/25 01:42:23;;;;;;;28.50;15.88;;;;;;;3.31;100.00;101101.25;5222187;28;20052;-76
2021/03/25 01:44:53;;;;;;;41.90;21.02;;;;;;;3.68;100.00;101096.13;5224383;28;20576;-77
2021/03/25 01:47:24;;;;;;;34.47;18.38;;;;;;;3.71;100.00;101090.94;5217046;28;20142;-76
2021/03/25 01:49:54;;;;;;;32.17;17.10;;;;;;;3.54;100.00;101091.81;5218473;28;20477;-76
2021/03/25 01:52:47;;;;;;;32.92;17.63;;;;;;;3.60;100.00;101080.63;5222163;28;20055;-77
2021/03/25 01:55:31;;;;;;;26.80;15.30;;;;;;;3.72;96.94;101072.00;5219220;28;20033;-77
2021/03/25 01:58:30;;;;;;;29.83;15.90;;;;;;;3.63;96.37;101078.03;5224088;28;20116;-77
2021/03/25 02:01:20;;;;;;;31.42;16.45;;;;;;;3.55;97.22;101080.63;5222470;28;20025;-77
2021/03/25 02:03:53;;;;;;;34.95;17.90;;;;;;;3.40;99.11;101076.28;5218408;28;20025;-77
2021/03/25 02:06:35;;;;;;;35.05;18.38;;;;;;;3.37;100.00;101086.63;5201324;28;20021;-77
2021/03/25 02:09:30;;;;;;;44.63;20.02;;;;;;;3.54;100.00;101086.66;5222589;28;20096;-76
2021/03/25 02:12:22;;;;;;;46.22;21.98;;;;;;;3.59;100.00;101078.06;5223790;28;20029;-76
2021/03/25 02:15:01;;;;;;;44.42;22.25;;;;;;;3.66;100.00;101075.47;5221266;28;20029;-76
2021/03/25 02:17:48;;;;;;;44.47;21.85;;;;;;;3.70;100.00;101069.44;5221559;28;20368;-76
2021/03/25 02:20:45;;;;;;;50.22;23.25;;;;;;;3.73;100.00;101072.00;5224131;28;20028;-77
2021/03/25 02:23:33;;;;;;;45.45;21.95;;;;;;;3.80;100.00;101067.72;5220871;28;20119;-76
2021/03/25 02:26:06;;;;;;;46.00;21.90;;;;;;;3.63;100.00;101067.69;5219953;28;20025;-76
2021/03/25 02:29:04;;;;;;;43.17;20.67;;;;;;;3.81;98.38;101067.69;5228598;28;20086;-76
2021/03/25 02:31:38;;;;;;;38.90;19.48;;;;;;;3.62;98.69;101065.97;5224994;28;20025;-77
2021/03/25 02:34:13;;;;;;;40.58;20.13;;;;;;;3.37;99.86;101067.69;5208621;28;20398;-77
2021/03/25 02:37:14;;;;;;;38.10;20.70;;;;;;;3.32;100.00;101059.06;5224543;28;20386;-77
2021/03/25 02:39:50;;;;;;;33.33;17.45;;;;;;;3.38;99.69;101070.25;5216196;28;20033;-77
2021/03/25 02:42:28;;;;;;;33.45;17.15;;;;;;;3.28;99.70;101067.66;5226436;28;20025;-77
2021/03/25 02:45:04;;;;;;;34.25;17.50;;;;;;;3.11;100.00;101074.53;5231032;28;20033;-76
2021/03/25 02:47:39;;;;;;;39.70;19.58;;;;;;;3.07;100.00;101075.38;5206682;28;20399;-77
2021/03/25 02:50:18;;;;;;;39.47;20.17;;;;;;;3.14;100.00;101066.78;5226532;28;20040;-77
2021/03/25 02:52:56;;;;;;;39.05;19.38;;;;;;;3.25;100.00;101068.53;5226378;28;20122;-76
2021/03/25 02:55:27;;;;;;;40.88;20.42;;;;;;;3.23;100.00;101065.06;5225869;28;20036;-76
2021/03/25 02:58:07;;;;;;;36.30;18.85;;;;;;;3.10;99.91;101062.47;5231101;28;20599;-77
2021/03/25 03:00:47;;;;;;;36.60;18.35;;;;;;;3.16;98.58;101062.50;5225346;28;20490;-77
2021/03/25 03:03:22;;;;;;;33.63;16.98;;;;;;;3.23;97.08;101053.91;5225595;28;20071;-77
2021/03/25 03:05:53;;;;;;;35.90;18.35;;;;;;;2.98;98.82;101059.84;5220280;28;20056;-77
2021/03/25 03:08:26;;;;;;;37.88;19.33;;;;;;;2.89;99.98;101068.44;5225173;28;20115;-76
2021/03/25 03:11:07;;;;;;;40.60;19.42;;;;;;;2.82;100.00;101061.53;5226705;28;20051;-77
2021/03/25 03:14:13;;;;;;;38.78;19.92;;;;;;;2.92;100.00;101065.00;5217417;28;20362;-77
2021/03/25 03:16:51;;;;;;;44.60;20.50;;;;;;;3.00;99.72;101060.75;5199355;28;20056;-77
2021/03/25 03:19:27;;;;;;;36.35;19.23;;;;;;;3.11;97.72;101064.19;5224963;28;20328;-77
2021/03/25 03:22:00;;;;;;;42.10;20.42;;;;;;;2.82;100.00;101060.69;5224239;28;20083;-77
2021/03/25 03:24:31;;;;;;;44.72;20.48;;;;;;;2.80;100.00;101064.97;5228427;28;20501;-77
2021/03/25 03:27:10;;;;;;;42.00;21.83;;;;;;;2.77;100.00;101067.53;5222420;28;20104;-77
2021/03/25 03:29:44;;;;;;;51.10;23.00;;;;;;;2.78;100.00;101064.97;5221409;28;20083;-76
2021/03/25 03:32:24;;;;;;;50.47;23.38;;;;;;;2.79;100.00;101065.81;5214502;28;20029;-77
2021/03/25 03:34:58;;;;;;;47.50;23.15;;;;;;;2.74;100.00;101071.00;5224829;28;20106;-77
2021/03/25 03:37:39;;;;;;;45.22;21.67;;;;;;;2.70;100.00;101064.06;5224861;28;20029;-77
2021/03/25 03:40:15;;;;;;;48.22;22.70;;;;;;;2.69;100.00;101064.09;5220666;28;20051;-77
2021/03/25 03:42:46;;;;;;;48.03;21.05;;;;;;;2.59;100.00;101063.19;5222388;28;20032;-77
2021/03/25 03:45:22;;;;;;;45.28;21.58;;;;;;;2.66;100.00;101066.66;5220904;28;20024;-77
2021/03/25 03:47:57;;;;;;;46.38;21.52;;;;;;;2.68;100.00;101064.94;5229221;28;20029;-77
2021/03/25 03:50:37;;;;;;;47.83;20.80;;;;;;;2.72;100.00;101066.66;5226773;28;20523;-77
2021/03/25 03:53:07;;;;;;;39.45;19.20;;;;;;;3.04;99.25;101062.47;5221743;28;20037;-77
2021/03/25 03:55:38;;;;;;;39.05;19.48;;;;;;;2.80;97.48;101067.53;5224542;28;20024;-76
2021/03/25 03:58:34;;;;;;;40.28;19.55;;;;;;;2.50;100.00;101067.44;5226780;28;20032;-77
2021/03/25 04:01:40;;;;;;;40.95;20.20;;;;;;;2.57;100.00;101061.44;5223534;28;20024;-77
2021/03/25 04:04:21;;;;;;;41.20;20.23;;;;;;;2.68;100.00;101063.19;5210381;28;20621;-77
2021/03/25 04:06:57;;;;;;;41.13;19.63;;;;;;;2.56;100.00;101063.19;5223548;28;20544;-77
2021/03/25 04:09:35;;;;;;;41.75;20.33;;;;;;;2.63;100.00;101064.91;5225147;28;20029;-77
2021/03/25 04:12:13;;;;;;;51.75;23.60;;;;;;;2.74;100.00;101064.94;5221291;28;20477;-77
2021/03/25 04:14:52;;;;;;;49.67;23.38;;;;;;;2.74;100.00;101059.78;5228027;28;20031;-77
2021/03/25 04:17:29;;;;;;;45.63;22.42;;;;;;;2.73;100.00;101055.50;5230895;28;20025;-76
2021/03/25 04:20:06;;;;;;;51.25;23.30;;;;;;;2.73;100.00;101060.66;5225040;28;20059;-77
2021/03/25 04:22:46;;;;;;;42.70;21.48;;;;;;;2.74;100.00;101063.25;5216052;28;20025;-78
2021/03/25 04:25:26;;;;;;;45.80;21.90;;;;;;;2.66;100.00;101058.91;5220992;28;20028;-77
2021/03/25 04:28:38;;;;;;;45.50;21.02;;;;;;;2.71;100.00;101063.22;5224232;28;20029;-77
2021/03/25 04:31:08;;;;;;;47.63;22.13;;;;;;;2.71;100.00;101064.94;5127079;28;20062;-77
2021/03/25 04:33:39;;;;;;;40.42;19.85;;;;;;;2.60;100.00;101061.44;5209394;28;20442;-77
2021/03/25 04:36:16;;;;;;;38.22;19.40;;;;;;;2.49;100.00;101066.56;5223270;28;20533;-77
2021/03/25 04:38:48;;;;;;;38.67;18.48;;;;;;;2.43;100.00;101061.38;5221677;28;20650;-77
2021/03/25 04:41:19;;;;;;;40.08;18.63;;;;;;;2.30;100.00;101063.91;5222898;28;20024;-77
2021/03/25 04:43:57;;;;;;;33.72;17.70;;;;;;;2.39;100.00;101067.41;5217766;28;20051;-77
2021/03/25 04:46:42;;;;;;;36.65;16.65;;;;;;;2.25;100.00;101075.88;5215931;28;20490;-77
2021/03/25 04:49:22;;;;;;;32.25;16.73;;;;;;;2.25;99.71;101076.78;5221212;28;20057;-76
2021/03/25 04:51:58;;;;;;;37.20;17.90;;;;;;;2.34;100.00;101068.22;5223184;28;20028;-76
2021/03/25 04:54:36;;;;;;;41.35;19.13;;;;;;;2.65;98.60;101064.94;5223452;28;20024;-76
2021/03/25 04:57:25;;;;;;;40.20;18.70;;;;;;;2.63;98.76;101069.19;5226006;28;20371;-77
2021/03/25 04:59:57;;;;;;;37.10;18.23;;;;;;;2.61;98.27;101060.59;5227778;28;20033;-77
2021/03/25 05:02:29;;;;;;;37.47;17.98;;;;;;;2.46;97.27;101069.13;5223441;28;20064;-77
2021/03/25 05:05:01;;;;;;;34.50;17.05;;;;;;;2.33;98.14;101067.34;5223794;28;20560;-76
2021/03/25 05:07:39;;;;;;;34.00;16.63;;;;;;;1.91;99.81;101081.69;5219780;28;20036;-77
2021/03/25 05:10:18;;;;;;;51.78;22.45;;;;;;;2.11;100.00;101083.56;5222578;28;20021;-76
2021/03/25 05:12:53;;;;;;;45.88;20.33;;;;;;;2.33;100.00;101076.81;5220857;28;20033;-77
2021/03/25 05:15:24;;;;;;;48.15;21.65;;;;;;;2.16;100.00;101081.84;5220200;28;20074;-77
2021/03/25 05:18:06;;;;;;;46.08;21.80;;;;;;;2.06;100.00;101080.09;5217929;28;20086;-76
2021/03/25 05:20:59;;;;;;;52.58;22.75;;;;;;;2.34;100.00;101088.84;5228930;28;20076;-77
2021/03/25 05:23:47;;;;;;;51.00;23.13;;;;;;;2.67;100.00;101083.84;5225801;28;20021;-77
2021/03/25 05:26:25;;;;;;;52.20;23.60;;;;;;;2.51;100.00;101085.47;5224708;28;20020;-77
2021/03/25 05:29:00;;;;;;;50.45;22.80;;;;;;;2.78;100.00;101079.56;5229377;28;20057;-78
2021/03/25 05:31:32;;;;;;;54.67;23.55;;;;;;;2.79;99.82;101086.47;5227930;28;20032;-77
2021/03/25 05:34:07;;;;;;;52.78;24.08;;;;;;;2.67;100.00;101082.13;5222871;28;20347;-77
2021/03/25 05:36:37;;;;;;;47.78;23.10;;;;;;;2.64;100.00;101081.22;5225360;28;20028;-76
2021/03/25 05:39:08;;;;;;;52.08;23.13;;;;;;;2.81;100.00;101085.63;5219822;28;20032;-78
2021/03/25 05:41:49;;;;;;;54.17;23.88;;;;;;;3.09;98.72;101087.44;5222010;28;20037;-76
2021/03/25 05:44:41;;;;;;;55.70;24.00;;;;;;;2.86;99.81;101089.06;5221270;28;20099;-76
2021/03/25 05:47:30;;;;;;;45.65;22.25;;;;;;;3.31;98.33;101085.75;5221502;28;20029;-77
2021/03/25 05:50:32;;;;;;;51.03;22.88;;;;;;;3.25;97.05;101083.16;5221593;28;20343;-77
2021/03/25 05:53:17;;;;;;;50.75;23.85;;;;;;;3.32;98.16;101095.22;5216433;28;20037;-76
2021/03/25 05:56:05;;;;;;;49.42;22.70;;;;;;;3.16;97.64;101098.66;5224988;28;20025;-76
2021/03/25 05:58:47;;;;;;;47.00;22.92;;;;;;;3.08;99.07;101103.78;5225781;28;20037;-78
2021/03/25 06:01:31;;;;;;;51.35;23.55;;;;;;;2.98;100.00;101108.91;5225998;28;20543;-77
2021/03/25 06:04:23;;;;;;;57.60;25.13;;;;;;;2.96;100.00;101110.63;5222158;28;20498;-77
2021/03/25 06:06:59;;;;;;;51.63;24.45;;;;;;;3.11;100.00;101113.25;5228871;28;20457;-78
2021/03/25 06:09:44;;;;;;;57.45;26.45;;;;;;;2.87;100.00;101105.44;5229223;28;20476;-76
2021/03/25 06:12:17;;;;;;;57.50;26.60;;;;;;;2.89;100.00;101114.88;5207017;28;20400;-77
2021/03/25 06:15:30;;;;;;;59.80;27.40;;;;;;;2.90;100.00;101111.47;5228061;28;20055;-78
2021/03/25 06:18:38;;;;;;;62.58;26.55;;;;;;;2.82;100.00;101117.47;5230196;28;20084;-77
2021/03/25 06:21:50;;;;;;;59.08;26.95;;;;;;;2.95;100.00;101119.22;5225997;28;20383;-77
2021/03/25 06:24:54;;;;;;;53.70;25.88;;;;;;;3.44;100.00;101121.94;5226685;28;20494;-76
2021/03/25 06:27:43;;;;;;;52.90;26.50;;;;;;;3.68;100.00;101122.84;5228386;28;20868;-77
2021/03/25 06:30:32;;;;;;;65.53;28.00;;;;;;;3.38;100.00;101124.50;5227535;28;20411;-77
2021/03/25 06:33:17;;;;;;;63.08;26.58;;;;;;;3.79;100.00;101131.44;5224739;28;20031;-76
2021/03/25 06:35:54;;;;;;;53.50;26.05;;;;;;;3.96;100.00;101132.31;5228070;28;20037;-76
2021/03/25 06:38:33;;;;;;;52.92;25.75;;;;;;;3.58;100.00;101134.03;5227646;28;20067;-78
2021/03/25 06:41:26;;;;;;;48.67;23.83;;;;;;;3.78;100.00;101134.91;5225291;28;20024;-77
2021/03/25 06:44:04;;;;;;;53.88;23.83;;;;;;;4.17;100.00;101128.88;5228196;28;20035;-77
2021/03/25 06:46:37;;;;;;;46.92;23.70;;;;;;;3.77;100.00;101138.34;5230638;28;20115;-78
2021/03/25 06:49:21;;;;;;;47.78;24.33;;;;;;;3.62;100.00;101134.91;5229044;28;20052;-75
2021/03/25 06:51:53;;;;;;;56.35;26.05;;;;;;;3.80;100.00;101133.16;5227639;28;20082;-76
2021/03/25 06:54:25;;;;;;;51.17;24.85;;;;;;;3.91;100.00;101123.72;5227229;28;20021;-78
2021/03/25 06:57:00;;;;;;;52.88;25.73;;;;;;;4.03;100.00;101126.28;5226505;28;20021;-77
2021/03/25 06:59:34;;;;;;;50.05;25.58;;;;;;;4.11;100.00;101129.72;5231362;28;20017;-76
2021/03/25 07:02:23;;;;;;;50.38;25.00;;;;;;;4.38;100.00;101129.69;5222576;28;20029;-76
2021/03/25 07:04:58;;;;;;;53.38;25.90;;;;;;;4.59;99.77;101134.81;5225666;28;20029;-77
2021/03/25 07:07:32;;;;;;;57.83;28.00;;;;;;;4.65;100.00;101128.78;5224183;28;20418;-77
2021/03/25 07:10:05;;;;;;;55.58;26.92;;;;;;;5.06;100.00;101132.06;5221839;28;20051;-76
2021/03/25 07:12:39;;;;;;;62.85;28.33;;;;;;;5.19;100.00;101133.72;5224729;28;20032;-76
2021/03/25 07:15:20;;;;;;;57.38;28.67;;;;;;;5.43;99.08;101130.13;5226456;28;20025;-78
2021/03/25 07:17:52;;;;;;;59.65;29.15;;;;;;;5.66;99.34;101137.75;5227569;28;20063;-76
2021/03/25 07:20:28;;;;;;;57.55;28.13;;;;;;;6.41;99.95;101142.34;5225257;28;20457;-77
2021/03/25 07:23:19;;;;;;;59.20;30.67;;;;;;;6.92;95.85;101132.25;5225138;28;20694;-76
2021/03/25 07:25:50;;;;;;;71.72;35.13;;;;;;;7.25;95.21;101131.81;5223268;28;20461;-78
2021/03/25 07:28:24;;;;;;;69.07;35.17;;;;;;;7.66;90.64;101130.38;5227529;28;20036;-77
2021/03/25 07:31:01;;;;;;;69.13;34.47;;;;;;;8.08;90.34;101132.28;5208993;28;20049;-77
2021/03/25 07:33:40;;;;;;;69.97;34.60;;;;;;;8.29;88.80;101133.69;5223157;28;20039;-78
2021/03/25 07:36:14;;;;;;;62.78;33.55;;;;;;;9.38;85.21;101128.91;5231052;28;20094;-78
2021/03/25 07:38:44;;;;;;;64.50;33.00;;;;;;;9.45;84.44;101133.13;5231030;28;20028;-76
2021/03/25 07:41:27;;;;;;;64.43;34.97;;;;;;;9.55;86.67;101134.59;5232023;28;20036;-77
2021/03/25 07:44:04;;;;;;;59.03;33.08;;;;;;;10.27;82.15;101131.13;5232541;28;20028;-77
2021/03/25 07:46:50;;;;;;;58.63;31.90;;;;;;;11.38;78.68;101133.22;5232114;28;20039;-77
2021/03/25 07:49:26;;;;;;;55.70;32.20;;;;;;;11.00;81.31;101130.03;5230041;28;20025;-77
2021/03/25 07:51:58;;;;;;;58.30;32.28;;;;;;;10.45;83.94;101140.22;5228710;28;20060;-77
2021/03/25 07:54:37;;;;;;;62.97;33.70;;;;;;;9.65;87.38;101144.78;5230378;28;20398;-77
2021/03/25 07:57:11;;;;;;;61.63;32.58;;;;;;;10.49;82.20;101136.66;5227103;28;20055;-77
2021/03/25 07:59:43;;;;;;;56.83;31.17;;;;;;;10.52;85.72;101144.44;5230532;28;20024;-76
2021/03/25 08:02:37;;;;;;;58.85;33.53;;;;;;;10.42;86.31;101146.41;5228405;28;20047;-76
2021/03/25 08:05:30;;;;;;;60.33;34.20;;;;;;;10.16;83.89;101142.75;5226676;28;20079;-77
2021/03/25 08:08:19;;;;;;;59.58;32.85;;;;;;;10.66;83.67;101144.91;5229546;28;20100;-77
2021/03/25 08:10:51;;;;;;;62.38;34.53;;;;;;;11.47;78.61;101140.81;5228506;28;20029;-76
2021/03/25 08:13:26;;;;;;;61.70;34.85;;;;;;;11.57;81.07;101137.00;5228781;28;20053;-77
2021/03/25 08:16:06;;;;;;;67.10;36.35;;;;;;;12.21;77.09;101129.69;5228445;28;20056;-77
2021/03/25 08:19:11;;;;;;;66.30;35.55;;;;;;;12.64;76.15;101132.53;5223767;28;20032;-76
2021/03/25 08:21:59;;;;;;;68.32;36.88;;;;;;;12.75;74.71;101137.41;5228148;28;20029;-77
2021/03/25 08:24:51;;;;;;;66.30;37.53;;;;;;;12.35;77.88;101142.31;5229176;28;20035;-76
2021/03/25 08:27:59;;;;;;;61.22;35.25;;;;;;;13.02;74.46;101132.94;5228953;28;20029;-76
2021/03/25 08:30:46;;;;;;;62.90;36.75;;;;;;;13.01;74.22;101125.97;5231008;28;20033;-76
2021/03/25 08:33:28;;;;;;;61.85;37.00;;;;;;;12.39;77.94;101134.31;5225265;28;20512;-76
2021/03/25 08:36:17;;;;;;;62.78;35.75;;;;;;;12.60;76.59;101133.56;5226641;28;20663;-76
2021/03/25 08:39:00;;;;;;;62.85;35.80;;;;;;;12.75;78.35;101132.16;5224033;28;20029;-77
2021/03/25 08:41:42;;;;;;;65.45;36.95;;;;;;;12.45;78.35;101128.84;5227447;28;20035;-77
2021/03/25 08:44:51;;;;;;;64.78;37.42;;;;;;;11.70;82.07;101128.75;5226294;28;20394;-77
2021/03/25 08:47:35;;;;;;;72.22;38.42;;;;;;;11.16;85.46;101137.38;5188240;28;20048;-76
2021/03/25 08:50:38;;;;;;;69.88;38.47;;;;;;;11.06;85.04;101144.63;5223694;28;20124;-77
2021/03/25 08:53:26;;;;;;;68.18;37.85;;;;;;;11.09;85.90;101141.06;5222987;28;20108;-76
2021/03/25 08:56:00;;;;;;;69.22;38.75;;;;;;;10.80;88.81;101148.00;5227081;28;20103;-77
2021/03/25 08:58:35;;;;;;;71.90;39.70;;;;;;;10.95;87.41;101143.22;5229856;28;20063;-76
2021/03/25 09:01:12;;;;;;;70.90;39.50;;;;;;;11.05;88.72;101140.28;5222483;28;20036;-77
2021/03/25 09:03:45;;;;;;;71.30;38.90;;;;;;;11.40;83.92;101137.50;5225330;28;20054;-77
2021/03/25 09:06:22;;;;;;;71.28;39.78;;;;;;;11.54;84.48;101137.06;5226672;28;20033;-76
2021/03/25 09:09:08;;;;;;;72.55;40.53;;;;;;;11.33;85.15;101136.00;5226898;28;20093;-77
2021/03/25 09:11:38;;;;;;;72.15;40.38;;;;;;;11.01;86.41;101132.56;5221253;28;20529;-77
2021/03/25 09:14:19;;;;;;;73.90;41.22;;;;;;;11.21;85.90;101128.50;5223409;28;20040;-77
2021/03/25 09:16:50;;;;;;;80.90;42.65;;;;;;;11.47;83.61;101123.31;5209084;28;20021;-77
2021/03/25 09:19:28;;;;;;;77.75;42.58;;;;;;;11.30;84.46;101127.38;5225636;28;20029;-78
2021/03/25 09:22:00;;;;;;;78.15;41.92;;;;;;;11.30;85.79;101130.81;5225018;28;20021;-77
2021/03/25 09:24:30;;;;;;;77.68;42.50;;;;;;;11.52;84.72;101134.53;5225255;28;20028;-75
2021/03/25 09:27:04;;;;;;;74.20;40.22;;;;;;;11.58;84.39;101128.28;5227952;28;20112;-77
2021/03/25 09:30:17;;;;;;;81.35;42.78;;;;;;;11.58;84.89;101136.97;5226002;28;20024;-77
2021/03/25 09:32:48;;;;;;;76.65;42.13;;;;;;;11.76;83.44;101136.41;5223339;28;20049;-76
2021/03/25 09:35:37;;;;;;;81.13;42.20;;;;;;;12.49;82.34;101140.94;5225556;28;20444;-75
2021/03/25 09:38:13;;;;;;;78.22;41.78;;;;;;;12.10;81.27;101144.06;5223542;28;20120;-78
2021/03/25 09:40:53;;;;;;;78.57;42.60;;;;;;;12.21;81.78;101140.19;5228748;28;20032;-77
2021/03/25 09:43:26;;;;;;;81.53;43.58;;;;;;;12.54;80.92;101133.78;5227980;28;20025;-77
2021/03/25 09:46:17;;;;;;;77.38;41.00;;;;;;;12.62;78.97;101133.53;5213655;28;20053;-77
2021/03/25 09:48:49;;;;;;;77.90;41.97;;;;;;;12.87;76.14;101130.00;5226221;28;20029;-77
2021/03/25 09:51:23;;;;;;;77.13;40.90;;;;;;;12.53;77.18;101125.97;5228408;28;20029;-77
2021/03/25 09:53:57;;;;;;;73.40;41.97;;;;;;;12.52;76.94;101125.13;5228598;28;20028;-77
2021/03/25 09:56:28;;;;;;;78.03;42.85;;;;;;;12.64;77.91;101129.91;5229447;28;20279;-77
2021/03/25 09:58:59;;;;;;;77.55;42.47;;;;;;;12.38;77.71;101127.38;5215163;28;20036;-77
2021/03/25 10:01:55;;;;;;;74.15;41.15;;;;;;;12.89;75.13;101125.53;5231245;28;20084;-77
2021/03/25 10:04:38;;;;;;;72.07;39.77;;;;;;;13.11;74.79;101116.00;5227818;28;20025;-76
2021/03/25 10:07:12;;;;;;;71.00;40.63;;;;;;;12.87;75.69;101122.13;5224299;28;20297;-78
2021/03/25 10:09:49;;;;;;;81.68;42.28;;;;;;;13.18;74.55;101118.31;5227987;28;20055;-77
2021/03/25 10:12:44;;;;;;;77.38;41.10;;;;;;;13.13;74.74;101115.03;5227161;28;20615;-76
2021/03/25 10:15:33;;;;;;;70.68;41.78;;;;;;;13.53;73.90;101106.47;5230515;28;20383;-78
2021/03/25 10:18:10;;;;;;;74.93;41.63;;;;;;;13.46;74.98;101107.63;5229830;28;20036;-77
2021/03/25 10:20:49;;;;;;;75.18;41.28;;;;;;;13.33;73.50;101112.50;5227101;28;20036;-77
2021/03/25 10:23:24;;;;;;;66.28;39.40;;;;;;;13.70;71.62;101102.28;5226834;28;20036;-76
2021/03/25 10:26:03;;;;;;;71.10;39.75;;;;;;;13.55;72.37;101104.66;5229708;28;20029;-76
2021/03/25 10:28:39;;;;;;;73.43;40.70;;;;;;;13.37;73.28;101108.00;5228427;28;20036;-78
2021/03/25 10:31:20;;;;;;;71.38;41.20;;;;;;;13.44;73.05;101104.22;5229142;28;20053;-76
2021/03/25 10:33:56;;;;;;;74.72;42.25;;;;;;;12.78;74.71;101106.69;5208854;28;573674;-77
2021/03/25 10:36:53;;;;;;;74.43;42.90;;;;;;;13.25;73.62;101104.03;5224528;28;20033;-77
2021/03/25 10:39:31;;;;;;;78.80;43.63;;;;;;;13.02;74.45;101098.81;5226347;28;20495;-76
2021/03/25 10:42:23;;;;;;;68.72;40.75;;;;;;;13.29;73.05;101100.41;5224148;28;20106;-76
2021/03/25 10:44:56;;;;;;;72.55;41.72;;;;;;;13.35;72.56;101096.66;5230735;28;20152;-78
2021/03/25 10:47:31;;;;;;;75.50;42.97;;;;;;;13.23;72.73;101098.00;5229276;28;20031;-77
2021/03/25 10:50:03;;;;;;;74.20;42.97;;;;;;;13.32;71.51;101089.78;5224507;28;20025;-78
2021/03/25 10:52:38;;;;;;;75.03;41.22;;;;;;;13.47;71.99;101089.19;5228616;28;20036;-77
2021/03/25 10:55:19;;;;;;;74.15;41.13;;;;;;;13.17;72.43;101093.00;5219660;28;20025;-78
2021/03/25 10:57:51;;;;;;;74.68;42.13;;;;;;;13.37;73.29;101094.88;5230564;28;20401;-76
2021/03/25 11:00:29;;;;;;;71.03;41.83;;;;;;;13.23;72.47;101089.28;5231997;28;20040;-76
2021/03/25 11:03:01;;;;;;;70.57;41.55;;;;;;;13.55;72.31;101081.84;5228025;28;20411;-76
2021/03/25 11:05:32;;;;;;;72.53;42.13;;;;;;;13.93;71.61;101077.69;5225387;28;20478;-77
2021/03/25 11:08:03;;;;;;;81.85;42.15;;;;;;;13.96;71.26;101078.44;5228833;28;20059;-77
2021/03/25 11:10:38;;;;;;;75.50;41.83;;;;;;;14.07;71.33;101081.47;5224619;28;20077;-77
2021/03/25 11:13:11;;;;;;;73.28;40.13;;;;;;;14.10;70.12;101073.44;5227087;28;20035;-76
2021/03/25 11:16:05;;;;;;;76.65;43.05;;;;;;;13.60;70.70;101072.03;5230998;28;20056;-78
2021/03/25 11:18:45;;;;;;;77.65;42.58;;;;;;;13.66;70.71;101073.56;5224236;28;20028;-78
2021/03/25 11:21:34;;;;;;;72.43;41.95;;;;;;;13.36;71.80;101074.75;5227761;28;20025;-77
2021/03/25 11:24:22;;;;;;;72.55;41.03;;;;;;;13.40;72.19;101068.50;5223668;28;20763;-77
2021/03/25 11:27:02;;;;;;;74.00;41.70;;;;;;;13.38;73.17;101080.81;5227376;28;20108;-77
2021/03/25 11:29:36;;;;;;;75.40;41.25;;;;;;;13.81;71.17;101070.31;5231253;28;20025;-78
2021/03/25 11:32:15;;;;;;;72.15;41.10;;;;;;;13.83;71.85;101068.47;5225910;28;20039;-78
2021/03/25 11:34:47;;;;;;;74.68;40.72;;;;;;;13.96;71.07;101061.81;5227084;28;20418;-77
2021/03/25 11:37:26;;;;;;;75.35;41.47;;;;;;;13.74;71.83;101060.97;5226394;28;20104;-78
2021/03/25 11:40:14;;;;;;;72.95;42.47;;;;;;;13.90;71.07;101065.53;5226799;28;20053;-77
2021/03/25 11:42:48;;;;;;;77.53;42.33;;;;;;;13.91;70.71;101061.16;5220902;28;20028;-78
2021/03/25 11:45:37;;;;;;;72.35;41.75;;;;;;;14.23;69.77;101053.63;5227479;28;20032;-78
2021/03/25 11:48:18;;;;;;;72.38;41.25;;;;;;;14.19;70.03;101048.56;5223027;28;20025;-77
2021/03/25 11:50:49;;;;;;;76.75;41.58;;;;;;;14.16;70.44;101049.56;5220697;28;20493;-78
2021/03/25 11:53:34;;;;;;;73.63;40.83;;;;;;;14.08;70.29;101050.78;5220558;28;20111;-78
2021/03/25 11:56:18;;;;;;;75.20;42.45;;;;;;;14.37;70.49;101045.16;5218128;28;20025;-77
2021/03/25 11:58:55;;;;;;;73.22;41.40;;;;;;;14.10;72.34;101041.06;5227778;28;20033;-77
2021/03/25 12:01:29;;;;;;;68.75;40.75;;;;;;;14.32;70.34;101039.25;5218486;28;20032;-77
2021/03/25 12:04:01;;;;;;;71.50;41.17;;;;;;;14.42;70.79;101036.13;5224756;28;20120;-78
2021/03/25 12:06:37;;;;;;;74.47;41.63;;;;;;;14.57;70.28;101032.00;5219679;28;20065;-77